Time;durP1;ratioP1;P1;durP2;ratioP2;P2;SDS_P1;SDS_P2;PMS_P1;PMS_P2;Temp;Humidity;BMP_temperature;BMP_pressure;BME280_temperature;BME280_humidity;BME280_pressure;Samples;Min_cycle;Max_cycle;Signal;HPM_P1;HPM_P2
2021/12/15 00:01:19;;;;;;;;;;;;;;;;;;4983639;28;19925;-83
2021/12/15 00:03:46;;;;;;;;;;;;;;;;;;4974865;28;19965;-83
2021/12/15 00:06:18;;;;;;;;;;;;;;;;;;4994933;28;19917;-82
2021/12/15 00:08:44;;;;;;;;;;;;;;;;;;4980747;28;19913;-83
2021/12/15 00:11:13;;;;;;;;;;;;;;;;;;4979640;28;19924;-83
2021/12/15 00:13:39;;;;;;;;;;;;;;;;;;4980398;28;19982;-83
2021/12/15 00:16:05;;;;;;;;;;;;;;;;;;5000045;28;21646;-83
2021/12/15 00:18:33;;;;;;;;;;;;;;;;;;5017039;28;19913;-83
2021/12/15 00:21:00;;;;;;;;;;;;;;;;;;4999151;28;19935;-83
2021/12/15 00:23:28;;;;;;;;;;;;;;;;;;5021225;28;19924;-82
2021/12/15 00:25:54;;;;;;;;;;;;;;;;;;5000033;28;19924;-82
2021/12/15 00:28:20;;;;;;;;;;;;;;;;;;5019932;28;20557;-82
2021/12/15 00:30:48;;;;;;;;;;;;;;;;;;5013836;28;20452;-83
2021/12/15 00:33:14;;;;;;;;;;;;;;;;;;5028368;28;19918;-83
2021/12/15 00:35:40;;;;;;;;;;;;;;;;;;4999806;28;19924;-84
2021/12/15 00:38:06;;;;;;;;;;;;;;;;;;5018050;28;19928;-84
2021/12/15 00:52:10;;;;;;;13.02;5.43;;;;;;;;;;5036617;27;20876;-83
2021/12/15 00:54:38;;;;;;;14.85;5.90;;;;;;;;;;5016351;28;20653;-83
2021/12/15 00:57:07;;;;;;;14.95;5.25;;;;;;;;;;4996531;28;24400;-83
2021/12/15 00:59:36;;;;;;;14.55;5.57;;;;;;;;;;5014093;28;20044;-83
2021/12/15 01:02:05;;;;;;;15.73;5.88;;;;;;;;;;4986837;28;20970;-83
2021/12/15 01:04:36;;;;;;;14.48;5.60;;;;;;;;;;4999307;28;20041;-83
2021/12/15 01:07:05;;;;;;;17.75;6.60;;;;;;;;;;5012965;28;20041;-83
2021/12/15 01:09:43;;;;;;;16.92;5.90;;;;;;;;;;5032848;28;20041;-82
2021/12/15 01:20:35;;;;;;;16.63;5.47;;;;;;;;;;5031618;28;20047;-82
2021/12/15 01:23:07;;;;;;;15.73;5.38;;;;;;;;;;5032012;28;20036;-83
2021/12/15 01:25:36;;;;;;;15.02;5.40;;;;;;;;;;5036690;28;20024;-82
2021/12/15 01:28:05;;;;;;;13.23;5.03;;;;;;;;;;5012841;28;20036;-82
2021/12/15 01:30:33;;;;;;;13.25;5.80;;;;;;;;;;5033032;28;20667;-82
2021/12/15 01:33:01;;;;;;;16.52;5.53;;;;;;;;;;5034409;28;20044;-82
2021/12/15 01:35:30;;;;;;;14.27;5.25;;;;;;;;;;5036829;28;20831;-82
2021/12/15 01:37:58;;;;;;;15.50;5.07;;;;;;;;;;5031362;28;20041;-82
2021/12/15 01:40:37;;;;;;;17.15;5.03;;;;;;;;;;5029473;28;20080;-81
2021/12/15 01:43:18;;;;;;;15.90;4.97;;;;;;;;;;5031488;28;20055;-83
2021/12/15 01:48:34;;;;;;;11.73;4.43;;;;;;;;;;5036279;28;20097;-84
2021/12/15 01:51:03;;;;;;;16.50;4.85;;;;;;;;;;5025355;28;20568;-83
2021/12/15 01:53:33;;;;;;;13.68;4.40;;;;;;;;;;5018616;28;20036;-84
2021/12/15 01:56:07;;;;;;;14.77;4.82;;;;;;;;;;5016744;28;20063;-83
2021/12/15 01:58:35;;;;;;;11.60;4.40;;;;;;;;;;5021750;28;20033;-83
2021/12/15 02:01:06;;;;;;;13.38;4.03;;;;;;;;;;5018154;28;20057;-83
2021/12/15 02:03:44;;;;;;;10.50;3.30;;;;;;;;;;5020198;28;20095;-84
2021/12/15 02:06:12;;;;;;;12.15;3.38;;;;;;;;;;5016656;28;20060;-83
2021/12/15 02:08:40;;;;;;;11.38;3.13;;;;;;;;;;5021906;28;20029;-83
2021/12/15 02:11:09;;;;;;;11.15;3.35;;;;;;;;;;5014687;28;20052;-81
2021/12/15 02:13:38;;;;;;;12.70;3.15;;;;;;;;;;5017056;28;20875;-82
2021/12/15 02:16:07;;;;;;;11.55;3.42;;;;;;;;;;5015262;28;20069;-82
2021/12/15 02:18:42;;;;;;;14.32;3.30;;;;;;;;;;5000181;28;20034;-81
2021/12/15 02:21:11;;;;;;;11.00;3.38;;;;;;;;;;5005020;28;20049;-81
2021/12/15 02:23:43;;;;;;;11.13;3.58;;;;;;;;;;5017966;28;20835;-81
2021/12/15 02:26:17;;;;;;;11.68;3.70;;;;;;;;;;4994696;28;20151;-81
2021/12/15 02:28:49;;;;;;;11.90;3.22;;;;;;;;;;5016966;28;20393;-81
2021/12/15 02:37:18;;;;;;;13.27;4.43;;;;;;;;;;4981770;28;20034;-81
2021/12/15 02:40:04;;;;;;;11.43;4.00;;;;;;;;;;4993882;28;20063;-82
2021/12/15 02:42:35;;;;;;;14.50;4.18;;;;;;;;;;4999789;28;20034;-82
2021/12/15 02:45:05;;;;;;;15.55;4.40;;;;;;;;;;4979432;28;20109;-82
2021/12/15 02:47:33;;;;;;;14.35;4.45;;;;;;;;;;4983087;28;20053;-82
2021/12/15 02:50:01;;;;;;;13.32;4.38;;;;;;;;;;4977988;28;20508;-82
2021/12/15 02:52:28;;;;;;;12.32;4.22;;;;;;;;;;5001908;28;20937;-82
2021/12/15 02:54:57;;;;;;;15.07;3.97;;;;;;;;;;4994306;28;21255;-82
2021/12/15 02:57:24;;;;;;;14.75;3.88;;;;;;;;;;4994005;28;20052;-82
2021/12/15 03:00:04;;;;;;;12.73;3.88;;;;;;;;;;4981535;28;20457;-82
2021/12/15 03:05:48;;;;;;;13.65;4.40;;;;;;;;;;5002994;28;20223;-83
2021/12/15 03:08:24;;;;;;;12.93;3.70;;;;;;;;;;4989118;28;20042;-83
2021/12/15 03:16:27;;;;;;;12.20;4.38;;;;;;;;;;5030284;28;20064;-83
2021/12/15 03:18:53;;;;;;;13.50;3.83;;;;;;;;;;5026750;28;20033;-83
2021/12/15 03:21:27;;;;;;;11.75;4.20;;;;;;;;;;5027282;28;20045;-83
2021/12/15 03:23:58;;;;;;;14.30;4.25;;;;;;;;;;5013425;28;20045;-83
2021/12/15 03:26:33;;;;;;;12.57;3.95;;;;;;;;;;5018955;28;20045;-84
2021/12/15 03:35:04;;;;;;;10.27;3.33;;;;;;;;;;5001199;28;20164;-83
2021/12/15 03:37:37;;;;;;;11.75;3.75;;;;;;;;;;5015299;28;20038;-81
2021/12/15 03:40:17;;;;;;;11.88;3.78;;;;;;;;;;5011459;28;20045;-83
2021/12/15 03:42:47;;;;;;;12.15;3.17;;;;;;;;;;5021740;28;20090;-83
2021/12/15 03:45:37;;;;;;;12.10;3.58;;;;;;;;;;5031019;28;20044;-81
2021/12/15 03:48:13;;;;;;;9.75;3.20;;;;;;;;;;4991546;28;20187;-81
2021/12/15 03:50:42;;;;;;;10.90;3.22;;;;;;;;;;4997950;28;20049;-81
2021/12/15 03:53:22;;;;;;;9.40;3.03;;;;;;;;;;4995296;28;20038;-82
2021/12/15 03:55:51;;;;;;;11.50;3.38;;;;;;;;;;4991723;28;20520;-82
2021/12/15 03:58:22;;;;;;;7.95;2.65;;;;;;;;;;4985837;28;20037;-82
2021/12/15 04:00:55;;;;;;;9.13;2.70;;;;;;;;;;5007448;28;20040;-82
2021/12/15 04:03:22;;;;;;;7.88;2.72;;;;;;;;;;5032649;28;20037;-82
2021/12/15 04:05:55;;;;;;;10.65;3.28;;;;;;;;;;5031733;28;20068;-82
2021/12/15 04:08:22;;;;;;;9.60;3.03;;;;;;;;;;5017358;28;20040;-82
2021/12/15 04:10:49;;;;;;;9.93;2.85;;;;;;;;;;5014750;28;20047;-81
2021/12/15 04:13:16;;;;;;;10.00;3.20;;;;;;;;;;5032506;28;20045;-81
2021/12/15 04:15:47;;;;;;;;;;;;;;;;;;5015217;28;20078;-84
2021/12/15 04:18:15;;;;;;;9.77;3.17;;;;;;;;;;5034733;28;19913;-82
2021/12/15 04:20:41;;;;;;;12.52;3.67;;;;;;;;;;5016296;28;20043;-81
2021/12/15 04:23:19;;;;;;;10.35;3.58;;;;;;;;;;5031735;28;20032;-82
2021/12/15 04:25:54;;;;;;;10.85;3.85;;;;;;;;;;5031993;28;20523;-81
2021/12/15 04:28:24;;;;;;;11.57;3.90;;;;;;;;;;5014791;28;20150;-84
2021/12/15 04:30:53;;;;;;;10.23;3.30;;;;;;;;;;5031075;28;20356;-83
2021/12/15 04:33:29;;;;;;;11.27;3.42;;;;;;;;;;5032191;28;20104;-83
2021/12/15 04:35:56;;;;;;;10.77;3.45;;;;;;;;;;5012225;28;20624;-84
2021/12/15 04:38:26;;;;;;;9.63;3.42;;;;;;;;;;5020402;28;20147;-81
2021/12/15 04:40:53;;;;;;;11.32;3.45;;;;;;;;;;5010790;28;20037;-82
2021/12/15 04:43:23;;;;;;;14.10;3.80;;;;;;;;;;5030212;28;20032;-82
2021/12/15 04:45:50;;;;;;;10.75;3.53;;;;;;;;;;4981323;28;20069;-81
2021/12/15 04:48:19;;;;;;;11.85;3.72;;;;;;;;;;4995744;28;20037;-81
2021/12/15 04:50:48;;;;;;;11.25;3.40;;;;;;;;;;4993711;28;20054;-81
2021/12/15 04:53:16;;;;;;;9.05;3.40;;;;;;;;;;5000351;28;20034;-81
2021/12/15 04:55:46;;;;;;;10.60;3.42;;;;;;;;;;4996967;28;20041;-83
2021/12/15 04:58:15;;;;;;;10.45;3.47;;;;;;;;;;5003508;28;20275;-83
2021/12/15 05:00:46;;;;;;;10.13;3.30;;;;;;;;;;5013118;28;20073;-81
2021/12/15 05:03:15;;;;;;;12.55;2.97;;;;;;;;;;5000792;28;20037;-82
2021/12/15 05:05:43;;;;;;;11.52;3.20;;;;;;;;;;5013258;28;20135;-81
2021/12/15 05:08:09;;;;;;;12.93;3.35;;;;;;;;;;5012447;28;20038;-81
2021/12/15 05:10:36;;;;;;;;;;;;;;;;;;5017271;28;20106;-82
2021/12/15 05:13:07;;;;;;;11.97;2.93;;;;;;;;;;5013049;28;19924;-82
2021/12/15 05:15:37;;;;;;;11.45;3.17;;;;;;;;;;5016208;28;20278;-81
2021/12/15 05:18:06;;;;;;;9.57;2.80;;;;;;;;;;5015084;28;20021;-81
2021/12/15 05:20:35;;;;;;;8.85;2.60;;;;;;;;;;5015384;28;20102;-81
2021/12/15 05:23:04;;;;;;;8.35;2.55;;;;;;;;;;4997659;28;20037;-81
2021/12/15 05:25:36;;;;;;;11.38;2.60;;;;;;;;;;5018051;28;20192;-81
2021/12/15 05:28:03;;;;;;;9.40;3.00;;;;;;;;;;4997119;28;20037;-82
2021/12/15 05:30:36;;;;;;;10.35;2.53;;;;;;;;;;5023271;28;20114;-82
2021/12/15 05:33:03;;;;;;;7.82;2.60;;;;;;;;;;5000379;28;20480;-82
2021/12/15 05:35:33;;;;;;;9.48;2.63;;;;;;;;;;5007656;28;20848;-82
2021/12/15 05:38:02;;;;;;;8.98;2.60;;;;;;;;;;5016959;28;20044;-82
2021/12/15 05:40:29;;;;;;;10.60;2.80;;;;;;;;;;5016605;28;20097;-82
2021/12/15 05:42:57;;;;;;;9.95;2.35;;;;;;;;;;4972789;28;20729;-82
2021/12/15 05:45:30;;;;;;;10.50;2.85;;;;;;;;;;4991809;28;20892;-81
2021/12/15 05:48:01;;;;;;;10.60;3.22;;;;;;;;;;5017609;28;20820;-82
2021/12/15 05:50:31;;;;;;;9.65;2.70;;;;;;;;;;5003086;28;20072;-82
2021/12/15 05:53:01;;;;;;;13.07;2.85;;;;;;;;;;5015006;28;20628;-82
2021/12/15 05:55:31;;;;;;;10.90;3.20;;;;;;;;;;5007633;28;20203;-82
2021/12/15 05:57:58;;;;;;;11.30;3.60;;;;;;;;;;5008957;28;20123;-82
2021/12/15 06:00:27;;;;;;;12.07;3.60;;;;;;;;;;4993543;28;20612;-82
2021/12/15 06:02:58;;;;;;;12.52;3.50;;;;;;;;;;5003784;28;20258;-82
2021/12/15 06:05:25;;;;;;;11.30;3.22;;;;;;;;;;5004539;28;20041;-81
2021/12/15 06:07:54;;;;;;;9.20;3.03;;;;;;;;;;5002549;28;20094;-82
2021/12/15 06:10:22;;;;;;;16.58;4.15;;;;;;;;;;5004829;28;20186;-84
2021/12/15 06:12:50;;;;;;;13.23;3.88;;;;;;;;;;5011314;28;20083;-82
2021/12/15 06:15:23;;;;;;;10.93;3.75;;;;;;;;;;5022117;28;20522;-84
2021/12/15 06:17:52;;;;;;;12.15;3.70;;;;;;;;;;5016489;28;20148;-82
2021/12/15 06:20:21;;;;;;;11.57;3.72;;;;;;;;;;5019645;28;20509;-81
2021/12/15 06:22:53;;;;;;;11.50;3.45;;;;;;;;;;5007078;28;20088;-83
2021/12/15 06:25:22;;;;;;;12.05;3.28;;;;;;;;;;4997097;28;20041;-83
2021/12/15 06:27:53;;;;;;;11.45;3.63;;;;;;;;;;4994258;28;20154;-82
2021/12/15 06:30:23;;;;;;;9.48;3.00;;;;;;;;;;4998051;28;20034;-82
2021/12/15 06:32:52;;;;;;;8.73;2.95;;;;;;;;;;4993397;28;20029;-82
2021/12/15 06:35:20;;;;;;;12.45;3.15;;;;;;;;;;4998990;28;20045;-83
2021/12/15 06:37:49;;;;;;;11.00;3.40;;;;;;;;;;5021248;28;20036;-82
2021/12/15 06:40:15;;;;;;;12.93;3.83;;;;;;;;;;5016947;28;20199;-82
2021/12/15 06:42:44;;;;;;;10.25;3.70;;;;;;;;;;5014973;28;20038;-82
2021/12/15 06:45:16;;;;;;;11.68;3.78;;;;;;;;;;4994509;28;20030;-81
2021/12/15 06:58:56;;;;;;;19.52;9.90;;;;;;;;;;5025470;28;20044;-83
2021/12/15 07:01:24;;;;;;;17.38;9.55;;;;;;;;;;5034992;28;20053;-82
2021/12/15 07:03:52;;;;;;;19.08;9.77;;;;;;;;;;5031933;28;20043;-83
2021/12/15 07:06:22;;;;;;;14.50;8.77;;;;;;;;;;5020135;28;20426;-83
2021/12/15 07:08:51;;;;;;;21.25;10.90;;;;;;;;;;5016284;28;20041;-82
2021/12/15 07:11:20;;;;;;;22.48;11.63;;;;;;;;;;5019984;28;20033;-81
2021/12/15 07:13:55;;;;;;;18.92;10.07;;;;;;;;;;5013967;28;20033;-83
2021/12/15 07:16:24;;;;;;;21.35;12.65;;;;;;;;;;5014450;28;20040;-84
2021/12/15 07:19:06;;;;;;;24.98;15.82;;;;;;;;;;5013531;28;20469;-82
2021/12/15 07:21:41;;;;;;;28.58;18.77;;;;;;;;;;5017563;28;20146;-82
2021/12/15 07:24:13;;;;;;;27.63;15.98;;;;;;;;;;5015427;28;20641;-82
2021/12/15 07:26:43;;;;;;;28.65;17.08;;;;;;;;;;4998217;28;20202;-82
2021/12/15 07:29:12;;;;;;;22.75;14.15;;;;;;;;;;5013748;28;20127;-82
2021/12/15 07:31:41;;;;;;;20.27;13.15;;;;;;;;;;5001666;28;21343;-83
2021/12/15 07:34:08;;;;;;;20.88;11.68;;;;;;;;;;4969145;28;20665;-82
2021/12/15 07:36:36;;;;;;;23.60;10.38;;;;;;;;;;4984987;28;20907;-84
2021/12/15 07:39:04;;;;;;;20.15;8.93;;;;;;;;;;4975403;28;20149;-81
2021/12/15 07:41:41;;;;;;;15.80;7.20;;;;;;;;;;4977571;28;20033;-82
2021/12/15 07:44:10;;;;;;;16.92;5.95;;;;;;;;;;4961451;28;20034;-83
2021/12/15 07:46:36;;;;;;;15.35;5.13;;;;;;;;;;4995645;28;20047;-83
2021/12/15 07:49:04;;;;;;;11.75;5.38;;;;;;;;;;4975077;28;20034;-83
2021/12/15 07:51:34;;;;;;;16.23;4.63;;;;;;;;;;4984226;28;20053;-83
2021/12/15 07:54:01;;;;;;;12.93;4.65;;;;;;;;;;5008601;28;20191;-84
2021/12/15 07:56:30;;;;;;;14.98;5.43;;;;;;;;;;5016402;28;20032;-82
2021/12/15 07:58:57;;;;;;;13.20;5.38;;;;;;;;;;4970382;28;20040;-82
2021/12/15 08:01:27;;;;;;;14.95;6.30;;;;;;;;;;5000203;28;20084;-84
2021/12/15 08:03:56;;;;;;;20.25;8.15;;;;;;;;;;4996893;28;20069;-83
2021/12/15 08:06:26;;;;;;;18.17;9.20;;;;;;;;;;5015704;28;20032;-82
2021/12/15 08:08:55;;;;;;;16.58;7.90;;;;;;;;;;5013778;28;20032;-82
2021/12/15 08:11:23;;;;;;;22.17;10.32;;;;;;;;;;5014764;28;20037;-82
2021/12/15 08:13:49;;;;;;;19.23;10.80;;;;;;;;;;5011629;28;20029;-83
2021/12/15 08:16:22;;;;;;;18.15;8.85;;;;;;;;;;5015265;28;20853;-83
2021/12/15 08:18:49;;;;;;;17.77;7.65;;;;;;;;;;4997639;28;20037;-83
2021/12/15 08:21:16;;;;;;;16.00;7.60;;;;;;;;;;4994347;28;20047;-83
2021/12/15 08:23:45;;;;;;;22.33;10.95;;;;;;;;;;5016535;28;20206;-83
2021/12/15 08:26:11;;;;;;;17.73;7.13;;;;;;;;;;5014957;28;20041;-83
2021/12/15 08:28:44;;;;;;;14.15;6.28;;;;;;;;;;5009580;28;20108;-83
2021/12/15 08:31:31;;;;;;;13.65;6.78;;;;;;;;;;5007749;28;20597;-83
2021/12/15 08:34:00;;;;;;;13.40;4.95;;;;;;;;;;4988659;28;20041;-84
2021/12/15 08:36:28;;;;;;;11.95;5.30;;;;;;;;;;4980672;28;20045;-82
2021/12/15 08:38:56;;;;;;;13.77;5.32;;;;;;;;;;4982117;28;20049;-83
2021/12/15 08:41:27;;;;;;;13.40;5.28;;;;;;;;;;4959261;28;20389;-83
2021/12/15 08:43:57;;;;;;;19.77;4.95;;;;;;;;;;4975001;28;20129;-83
2021/12/15 08:46:30;;;;;;;18.77;4.80;;;;;;;;;;4955268;28;20141;-83
2021/12/15 08:48:59;;;;;;;15.60;4.55;;;;;;;;;;4971461;28;20038;-83
2021/12/15 08:51:27;;;;;;;16.73;5.10;;;;;;;;;;4973647;28;20041;-83
2021/12/15 08:53:58;;;;;;;15.18;4.38;;;;;;;;;;4970479;28;20050;-83
2021/12/15 08:56:26;;;;;;;17.00;4.80;;;;;;;;;;4961675;28;20060;-83
2021/12/15 08:58:55;;;;;;;18.02;5.80;;;;;;;;;;4970662;28;20038;-84
2021/12/15 09:01:24;;;;;;;16.38;6.40;;;;;;;;;;4975631;28;20141;-84
2021/12/15 09:03:53;;;;;;;14.23;5.40;;;;;;;;;;4991409;28;20045;-84
2021/12/15 09:06:21;;;;;;;16.92;6.00;;;;;;;;;;4998207;28;20588;-85
2021/12/15 09:08:59;;;;;;;16.17;7.10;;;;;;;;;;4978919;28;20044;-84
2021/12/15 09:11:27;;;;;;;19.25;7.18;;;;;;;;;;4995719;28;20192;-84
2021/12/15 09:13:57;;;;;;;19.15;7.45;;;;;;;;;;4991898;28;20526;-85
2021/12/15 09:16:26;;;;;;;15.27;6.57;;;;;;;;;;4986005;28;20037;-85
2021/12/15 09:19:05;;;;;;;15.98;7.10;;;;;;;;;;5010887;28;20045;-84
2021/12/15 09:21:32;;;;;;;13.45;5.82;;;;;;;;;;5019264;28;20041;-84
2021/12/15 09:24:03;;;;;;;12.57;4.82;;;;;;;;;;5019477;28;20121;-85
2021/12/15 09:26:29;;;;;;;14.65;5.75;;;;;;;;;;4983495;28;20091;-84
2021/12/15 09:28:57;;;;;;;15.85;6.20;;;;;;;;;;4996387;28;20040;-84
2021/12/15 09:31:27;;;;;;;14.50;6.53;;;;;;;;;;5004061;28;20117;-84
2021/12/15 09:33:55;;;;;;;19.13;9.82;;;;;;;;;;4995988;28;20119;-85
2021/12/15 09:36:24;;;;;;;20.55;10.23;;;;;;;;;;5001713;28;20446;-85
2021/12/15 09:39:06;;;;;;;17.25;7.78;;;;;;;;;;4991822;28;20064;-85
2021/12/15 09:41:34;;;;;;;18.60;8.90;;;;;;;;;;4999966;28;20490;-85
2021/12/15 09:44:07;;;;;;;15.63;8.20;;;;;;;;;;4991261;28;20053;-85
2021/12/15 10:03:37;;;;;;;14.18;4.53;;;;;;;;;;4976475;28;20181;-82
2021/12/15 10:12:06;;;;;;;11.77;4.10;;;;;;;;;;4960903;28;20900;-83
2021/12/15 10:20:01;;;;;;;10.05;3.25;;;;;;;;;;4949114;28;20850;-83
2021/12/15 10:22:47;;;;;;;11.45;4.90;;;;;;;;;;4952690;28;20217;-84
2021/12/15 10:25:17;;;;;;;12.68;4.30;;;;;;;;;;4960761;28;20069;-84
2021/12/15 10:27:48;;;;;;;12.80;5.10;;;;;;;;;;4932932;28;20055;-84
2021/12/15 10:30:21;;;;;;;11.65;5.32;;;;;;;;;;4964549;28;20056;-84
2021/12/15 10:32:49;;;;;;;13.35;6.70;;;;;;;;;;4962129;28;20033;-85
2021/12/15 10:35:22;;;;;;;15.27;7.05;;;;;;;;;;4958153;28;20084;-85
2021/12/15 10:38:07;;;;;;;16.33;8.02;;;;;;;;;;4973504;28;20526;-84
2021/12/15 10:40:47;;;;;;;14.15;7.50;;;;;;;;;;4980050;28;20057;-85
2021/12/15 10:43:15;;;;;;;13.77;7.63;;;;;;;;;;4964513;28;20905;-85
2021/12/15 10:45:46;;;;;;;11.05;5.35;;;;;;;;;;4975273;28;20041;-83
2021/12/15 10:48:36;;;;;;;11.88;5.68;;;;;;;;;;5025527;28;20202;-82
2021/12/15 10:51:24;;;;;;;11.05;4.97;;;;;;;;;;4996119;28;20076;-85
2021/12/15 10:53:51;;;;;;;12.48;7.10;;;;;;;;;;4977076;28;20071;-85
2021/12/15 10:56:24;;;;;;;13.10;6.30;;;;;;;;;;4969235;28;20033;-85
2021/12/15 10:58:55;;;;;;;15.40;7.30;;;;;;;;;;4947427;28;20048;-85
2021/12/15 11:01:32;;;;;;;13.60;7.47;;;;;;;;;;4993226;28;20088;-85
2021/12/15 11:04:02;;;;;;;13.77;7.07;;;;;;;;;;4969184;28;20104;-85
2021/12/15 11:06:36;;;;;;;12.13;5.93;;;;;;;;;;4991319;28;20080;-85
2021/12/15 11:09:21;;;;;;;11.80;6.30;;;;;;;;;;5013430;28;20037;-85
2021/12/15 11:12:17;;;;;;;11.48;6.55;;;;;;;;;;4991469;28;20791;-84
2021/12/15 11:14:50;;;;;;;12.40;6.70;;;;;;;;;;4955323;28;20982;-85
2021/12/15 11:17:23;;;;;;;14.10;7.25;;;;;;;;;;4961118;28;20065;-85
2021/12/15 11:19:59;;;;;;;14.07;7.95;;;;;;;;;;4959174;28;20145;-84
2021/12/15 11:22:34;;;;;;;12.77;8.18;;;;;;;;;;4963147;28;20189;-84
2021/12/15 11:25:01;;;;;;;12.93;7.32;;;;;;;;;;4957552;28;20514;-83
2021/12/15 11:27:28;;;;;;;12.52;7.18;;;;;;;;;;4947076;28;20061;-83
2021/12/15 11:30:00;;;;;;;12.52;7.43;;;;;;;;;;4957340;28;20035;-83
2021/12/15 11:32:37;;;;;;;14.88;8.50;;;;;;;;;;4973161;28;20647;-84
2021/12/15 11:35:09;;;;;;;14.00;6.68;;;;;;;;;;4955007;28;20081;-83
2021/12/15 11:37:56;;;;;;;12.73;7.55;;;;;;;;;;4964154;28;20092;-83
2021/12/15 11:40:34;;;;;;;14.73;8.68;;;;;;;;;;4959366;28;20053;-84
2021/12/15 11:43:02;;;;;;;17.08;10.18;;;;;;;;;;4955115;28;20030;-84
2021/12/15 11:45:32;;;;;;;17.85;9.65;;;;;;;;;;4957309;28;20093;-84
2021/12/15 11:48:17;;;;;;;14.25;7.97;;;;;;;;;;4957086;28;20045;-83
2021/12/15 11:50:46;;;;;;;15.33;8.23;;;;;;;;;;4976826;28;20064;-84
2021/12/15 11:53:32;;;;;;;13.15;7.80;;;;;;;;;;4989378;28;20306;-84
2021/12/15 11:56:16;;;;;;;16.83;8.77;;;;;;;;;;5011961;28;20045;-83
2021/12/15 11:58:43;;;;;;;18.48;10.13;;;;;;;;;;4994411;28;20032;-83
2021/12/15 12:01:32;;;;;;;15.07;8.65;;;;;;;;;;5018091;28;20041;-83
2021/12/15 12:04:13;;;;;;;12.68;7.53;;;;;;;;;;5005815;28;20083;-83
2021/12/15 12:06:43;;;;;;;12.88;7.35;;;;;;;;;;5014976;28;20044;-83
2021/12/15 12:09:12;;;;;;;14.68;8.40;;;;;;;;;;5015263;28;20029;-82
2021/12/15 12:11:41;;;;;;;13.88;7.38;;;;;;;;;;5017994;28;20071;-83
2021/12/15 12:14:18;;;;;;;13.85;7.50;;;;;;;;;;5013076;28;20108;-83
2021/12/15 12:16:45;;;;;;;14.02;8.07;;;;;;;;;;5015723;28;20036;-83
2021/12/15 12:19:15;;;;;;;13.57;7.65;;;;;;;;;;5014473;28;20040;-83
2021/12/15 12:21:44;;;;;;;12.82;7.55;;;;;;;;;;5001726;28;20036;-82
2021/12/15 12:24:17;;;;;;;12.82;7.35;;;;;;;;;;5011546;28;20053;-83
2021/12/15 12:26:47;;;;;;;18.52;7.85;;;;;;;;;;5006974;28;20041;-83
2021/12/15 12:29:17;;;;;;;13.30;7.57;;;;;;;;;;5021634;28;20040;-82
2021/12/15 12:31:43;;;;;;;12.48;7.15;;;;;;;;;;5012004;28;20040;-83
2021/12/15 12:34:11;;;;;;;13.40;8.23;;;;;;;;;;5012447;28;20534;-83
2021/12/15 12:36:39;;;;;;;12.65;7.88;;;;;;;;;;5015863;28;20120;-83
2021/12/15 12:39:08;;;;;;;11.93;5.65;;;;;;;;;;5014823;28;20091;-83
2021/12/15 12:41:44;;;;;;;10.75;6.57;;;;;;;;;;5016501;28;20041;-82
2021/12/15 12:44:14;;;;;;;13.38;7.50;;;;;;;;;;5014368;28;20088;-83
2021/12/15 12:46:55;;;;;;;15.65;7.85;;;;;;;;;;5017109;28;20036;-81
2021/12/15 12:49:57;;;;;;;12.73;6.88;;;;;;;;;;5016367;28;20207;-83
2021/12/15 13:01:02;;;;;;;13.13;6.55;;;;;;;;;;5015923;28;20982;-83
2021/12/15 13:03:34;;;;;;;14.38;7.60;;;;;;;;;;5017960;28;20152;-83
2021/12/15 13:06:12;;;;;;;11.77;6.72;;;;;;;;;;5030273;28;20103;-83
2021/12/15 13:08:48;;;;;;;10.98;5.47;;;;;;;;;;5034267;28;20044;-83
2021/12/15 13:11:34;;;;;;;9.18;4.97;;;;;;;;;;5012775;28;20037;-82
2021/12/15 13:14:02;;;;;;;;;;;;;;;;;;5027353;28;20037;-85
2021/12/15 13:16:39;;;;;;;10.98;5.85;;;;;;;;;;5032014;28;19916;-83
2021/12/15 13:19:24;;;;;;;10.75;5.15;;;;;;;;;;5029009;28;20494;-83
2021/12/15 13:22:17;;;;;;;11.05;5.53;;;;;;;;;;5027543;28;20040;-84
2021/12/15 13:30:37;;;;;;;12.52;6.55;;;;;;;;;;5015917;28;20118;-85
2021/12/15 13:33:13;;;;;;;12.40;5.75;;;;;;;;;;5013343;28;20116;-82
2021/12/15 13:35:51;;;;;;;13.88;5.65;;;;;;;;;;5011031;28;20053;-84
2021/12/15 13:38:30;;;;;;;13.25;7.43;;;;;;;;;;4998309;28;20091;-84
2021/12/15 13:41:21;;;;;;;15.95;6.30;;;;;;;;;;4993954;28;20041;-83
2021/12/15 13:44:18;;;;;;;15.73;8.95;;;;;;;;;;4989630;28;21019;-85
2021/12/15 13:46:49;;;;;;;14.23;8.85;;;;;;;;;;4998422;28;20071;-83
2021/12/15 13:49:28;;;;;;;13.73;8.45;;;;;;;;;;5004460;28;20131;-82
2021/12/15 13:52:02;;;;;;;16.42;11.07;;;;;;;;;;5006123;28;20128;-83
2021/12/15 13:54:39;;;;;;;16.75;10.02;;;;;;;;;;5028226;28;20104;-83
2021/12/15 13:57:45;;;;;;;14.98;9.10;;;;;;;;;;5006047;28;22266;-84
2021/12/15 14:00:23;;;;;;;10.77;5.40;;;;;;;;;;4955284;28;20046;-82
2021/12/15 14:03:02;;;;;;;12.32;7.00;;;;;;;;;;4958904;28;20513;-84
2021/12/15 14:05:48;;;;;;;11.57;5.32;;;;;;;;;;4978981;28;20080;-82
2021/12/15 14:08:18;;;;;;;9.87;5.40;;;;;;;;;;4981712;28;20038;-84
2021/12/15 14:10:55;;;;;;;10.48;5.53;;;;;;;;;;4962045;28;20493;-84
2021/12/15 14:13:37;;;;;;;10.60;5.38;;;;;;;;;;4979449;28;20340;-85
2021/12/15 14:16:05;;;;;;;9.80;4.45;;;;;;;;;;4976521;28;20053;-83
2021/12/15 14:18:34;;;;;;;10.18;5.60;;;;;;;;;;4962934;28;20076;-83
2021/12/15 14:21:06;;;;;;;14.98;9.85;;;;;;;;;;4957409;28;20128;-82
2021/12/15 14:23:37;;;;;;;12.40;7.35;;;;;;;;;;4965049;28;20106;-83
2021/12/15 14:26:09;;;;;;;17.92;11.75;;;;;;;;;;4956436;28;20125;-82
2021/12/15 14:28:44;;;;;;;24.70;17.10;;;;;;;;;;4943504;28;20916;-83
2021/12/15 14:31:16;;;;;;;22.00;14.45;;;;;;;;;;4964595;28;20054;-83
2021/12/15 14:33:50;;;;;;;17.25;11.65;;;;;;;;;;4982755;28;20030;-83
2021/12/15 14:36:37;;;;;;;20.15;12.70;;;;;;;;;;4963809;28;20029;-83
2021/12/15 14:39:13;;;;;;;18.25;11.13;;;;;;;;;;4962864;28;20046;-81
2021/12/15 14:41:40;;;;;;;;;;;;;;;;;;4991340;28;20061;-82
2021/12/15 14:44:09;;;;;;;;;;;;;;;;;;4981056;28;21633;-83
2021/12/15 14:46:39;;;;;;;20.30;13.93;;;;;;;;;;4983519;28;20045;-84
2021/12/15 14:49:15;;;;;;;17.08;10.32;;;;;;;;;;4963879;28;21020;-83
2021/12/15 14:51:49;;;;;;;17.27;9.93;;;;;;;;;;4990390;28;20051;-84
2021/12/15 14:54:19;;;;;;;14.20;9.32;;;;;;;;;;5031686;28;20040;-81
2021/12/15 14:56:55;;;;;;;15.90;9.95;;;;;;;;;;5015682;28;20033;-83
2021/12/15 14:59:27;;;;;;;15.60;10.40;;;;;;;;;;4991007;28;20041;-83
2021/12/15 15:01:56;;;;;;;17.17;9.73;;;;;;;;;;5013812;28;20897;-84
2021/12/15 15:04:25;;;;;;;13.75;8.35;;;;;;;;;;5015090;28;20926;-83
2021/12/15 15:07:02;;;;;;;16.05;10.13;;;;;;;;;;5014443;28;20037;-85
2021/12/15 15:09:33;;;;;;;20.45;12.63;;;;;;;;;;5011359;28;20915;-83
2021/12/15 15:12:10;;;;;;;16.23;11.07;;;;;;;;;;5015655;28;20025;-83
2021/12/15 15:14:44;;;;;;;16.30;10.85;;;;;;;;;;5020401;28;20065;-83
2021/12/15 15:17:30;;;;;;;14.73;8.98;;;;;;;;;;5018255;28;20033;-83
2021/12/15 15:20:13;;;;;;;18.77;12.95;;;;;;;;;;4999206;28;20026;-83
2021/12/15 15:22:42;;;;;;;24.50;19.50;;;;;;;;;;4999279;28;20036;-83
2021/12/15 15:25:12;;;;;;;22.80;17.35;;;;;;;;;;5013070;28;20033;-84
2021/12/15 15:27:41;;;;;;;23.63;19.52;;;;;;;;;;4998207;28;20036;-83
2021/12/15 15:30:10;;;;;;;18.92;13.70;;;;;;;;;;4996630;28;20036;-83
2021/12/15 15:32:40;;;;;;;23.40;17.48;;;;;;;;;;5001496;28;20095;-84
2021/12/15 15:35:12;;;;;;;19.70;13.60;;;;;;;;;;4998670;28;20052;-84
2021/12/15 15:37:43;;;;;;;19.73;14.10;;;;;;;;;;4965419;28;20030;-84
2021/12/15 15:40:16;;;;;;;22.08;13.63;;;;;;;;;;4968299;28;20125;-85
2021/12/15 15:42:45;;;;;;;19.10;12.48;;;;;;;;;;4925145;28;20334;-83
2021/12/15 15:45:25;;;;;;;20.55;11.85;;;;;;;;;;4918804;28;20051;-83
2021/12/15 15:47:54;;;;;;;17.77;10.57;;;;;;;;;;4935202;28;20045;-83
2021/12/15 15:50:21;;;;;;;24.35;15.57;;;;;;;;;;4941303;28;20098;-83
2021/12/15 15:52:49;;;;;;;26.73;14.85;;;;;;;;;;4938248;28;20050;-82
2021/12/15 15:55:20;;;;;;;24.65;14.93;;;;;;;;;;4937945;28;20058;-83
2021/12/15 15:57:50;;;;;;;22.63;12.77;;;;;;;;;;4927548;28;20157;-82
2021/12/15 16:00:38;;;;;;;20.33;12.88;;;;;;;;;;4944011;28;20041;-82
2021/12/15 16:03:09;;;;;;;22.25;14.13;;;;;;;;;;4925988;28;20098;-83
2021/12/15 16:05:37;;;;;;;25.83;16.25;;;;;;;;;;4940112;28;20035;-83
2021/12/15 16:08:07;;;;;;;24.15;16.23;;;;;;;;;;4949792;28;20087;-82
2021/12/15 16:10:36;;;;;;;27.38;17.77;;;;;;;;;;4997862;28;20807;-83
2021/12/15 16:13:05;;;;;;;29.58;18.75;;;;;;;;;;4991947;28;20033;-83
2021/12/15 16:15:36;;;;;;;27.00;14.18;;;;;;;;;;4980466;28;20700;-82
2021/12/15 16:18:06;;;;;;;21.33;14.27;;;;;;;;;;4996703;28;20079;-83
2021/12/15 16:23:22;;;;;;;100.88;69.43;;;;;;;;;;4994423;28;20254;-83
2021/12/15 16:25:52;;;;;;;43.95;30.95;;;;;;;;;;4996501;28;20387;-82
2021/12/15 16:28:21;;;;;;;35.05;27.08;;;;;;;;;;5009112;28;20029;-83
2021/12/15 16:30:59;;;;;;;35.88;25.55;;;;;;;;;;5017672;28;20116;-84
2021/12/15 16:33:27;;;;;;;42.78;29.77;;;;;;;;;;5008397;28;20536;-84
2021/12/15 16:35:56;;;;;;;49.30;33.70;;;;;;;;;;5013797;28;20035;-84
2021/12/15 16:38:31;;;;;;;44.03;28.90;;;;;;;;;;5016790;28;20200;-84
2021/12/15 16:41:45;;;;;;;38.00;26.33;;;;;;;;;;5012369;28;20060;-84
2021/12/15 16:44:19;;;;;;;57.35;37.70;;;;;;;;;;5013342;28;20524;-83